Time;durP1;ratioP1;P1;durP2;ratioP2;P2;SDS_P1;SDS_P2;PMS_P1;PMS_P2;Temp;Humidity;BMP_temperature;BMP_pressure;BME280_temperature;BME280_humidity;BME280_pressure;Samples;Min_cycle;Max_cycle;Signal;HPM_P1;HPM_P2
2023/08/05 00:01:12;;;;;;;3.42;1.25;;;16.60;99.90;;;;;;5092755;28;20136;-47
2023/08/05 00:03:38;;;;;;;3.65;1.40;;;16.60;99.90;;;;;;5093911;28;20059;-48
2023/08/05 00:06:03;;;;;;;3.97;1.15;;;16.60;99.90;;;;;;5093831;28;20060;-48
2023/08/05 00:08:29;;;;;;;3.33;1.15;;;16.60;99.90;;;;;;5093140;28;20048;-47
2023/08/05 00:10:55;;;;;;;2.78;1.20;;;16.60;99.90;;;;;;5094042;28;20044;-47
2023/08/05 00:13:20;;;;;;;2.67;1.15;;;16.60;99.90;;;;;;5093789;28;20051;-48
2023/08/05 00:15:46;;;;;;;2.95;1.20;;;16.60;99.90;;;;;;5092822;28;20051;-47
2023/08/05 00:18:11;;;;;;;3.15;1.10;;;16.60;99.90;;;;;;5093936;28;20044;-48
2023/08/05 00:20:37;;;;;;;3.83;1.30;;;16.60;99.90;;;;;;5093773;28;20482;-48
2023/08/05 00:23:03;;;;;;;5.70;1.08;;;16.60;99.90;;;;;;5093606;28;20048;-48
2023/08/05 00:25:29;;;;;;;3.13;1.13;;;16.60;99.90;;;;;;5093057;28;20094;-47
2023/08/05 00:27:54;;;;;;;3.80;1.20;;;16.50;99.90;;;;;;5093812;28;20404;-47
2023/08/05 00:30:20;;;;;;;3.55;1.30;;;16.50;99.90;;;;;;5093670;28;20475;-48
2023/08/05 00:32:46;;;;;;;3.70;1.40;;;16.50;99.90;;;;;;5093675;28;20048;-47
2023/08/05 00:35:11;;;;;;;3.22;1.13;;;16.50;99.90;;;;;;5093716;28;20411;-47
2023/08/05 00:37:37;;;;;;;3.47;1.20;;;16.50;99.90;;;;;;5093878;28;20044;-48
2023/08/05 00:40:05;;;;;;;3.15;1.00;;;16.50;99.90;;;;;;5093580;28;20460;-48
2023/08/05 00:42:31;;;;;;;3.90;1.38;;;16.50;99.90;;;;;;5093680;28;20127;-47
2023/08/05 00:44:57;;;;;;;2.80;1.20;;;16.50;99.90;;;;;;5093436;28;20052;-47
2023/08/05 00:47:23;;;;;;;5.05;1.50;;;16.50;99.90;;;;;;5093572;28;20055;-47
2023/08/05 00:49:51;;;;;;;4.85;1.30;;;16.50;99.90;;;;;;5093639;28;20083;-47
2023/08/05 00:52:20;;;;;;;3.58;1.20;;;16.50;99.90;;;;;;5093473;28;20498;-47
2023/08/05 00:54:46;;;;;;;3.10;1.25;;;16.40;99.90;;;;;;5093522;28;20040;-47
2023/08/05 00:57:13;;;;;;;2.65;0.95;;;16.40;99.90;;;;;;5092392;28;20364;-48
2023/08/05 00:59:38;;;;;;;;;;;16.40;99.90;;;;;;5092845;28;20091;-48
2023/08/05 01:02:05;;;;;;;3.28;1.33;;;16.40;99.90;;;;;;5093540;28;19931;-48
2023/08/05 01:04:30;;;;;;;4.35;1.20;;;16.40;99.90;;;;;;5126515;28;20044;-48
2023/08/05 01:06:58;;;;;;;3.50;1.13;;;16.40;99.90;;;;;;5093582;28;20051;-47
2023/08/05 01:09:27;;;;;;;3.50;1.17;;;16.40;99.90;;;;;;5093361;28;20130;-48
2023/08/05 01:11:53;;;;;;;3.38;1.00;;;16.40;99.90;;;;;;5092099;28;20044;-47
2023/08/05 01:14:19;;;;;;;5.85;1.40;;;16.40;99.90;;;;;;5093418;28;20043;-47
2023/08/05 01:16:45;;;;;;;2.90;1.13;;;16.40;99.90;;;;;;5093422;28;20040;-47
2023/08/05 01:19:29;;;;;;;3.88;1.20;;;16.40;99.90;;;;;;5093345;28;20126;-48
2023/08/05 01:22:19;;;;;;;3.90;1.20;;;16.30;99.90;;;;;;5093410;28;20059;-47
2023/08/05 01:25:03;;;;;;;3.80;1.35;;;16.30;99.90;;;;;;5093381;28;20117;-47
2023/08/05 01:27:32;;;;;;;3.50;1.20;;;16.30;99.90;;;;;;5093273;28;20070;-47
2023/08/05 01:29:57;;;;;;;4.38;1.45;;;16.20;99.90;;;;;;5092319;28;20084;-47
2023/08/05 01:32:24;;;;;;;4.78;1.63;;;16.20;99.90;;;;;;5092060;28;20198;-47
2023/08/05 01:34:50;;;;;;;4.22;1.55;;;16.20;99.90;;;;;;5091772;28;20032;-48
2023/08/05 01:37:16;;;;;;;5.57;1.80;;;16.10;99.90;;;;;;5096786;28;20046;-47
2023/08/05 01:39:41;;;;;;;4.13;1.50;;;16.10;99.90;;;;;;5096875;28;20040;-48
2023/08/05 01:42:07;;;;;;;3.80;1.40;;;16.00;99.90;;;;;;5096854;28;20044;-47
2023/08/05 01:44:33;;;;;;;5.63;1.85;;;16.00;99.90;;;;;;5096812;28;20048;-47
2023/08/05 01:46:59;;;;;;;5.90;2.50;;;16.00;99.90;;;;;;5096751;28;20044;-47
2023/08/05 01:49:24;;;;;;;6.23;2.20;;;15.90;99.90;;;;;;5096688;28;20514;-47
2023/08/05 01:51:50;;;;;;;5.80;2.33;;;15.90;99.90;;;;;;5096711;28;20759;-47
2023/08/05 01:54:16;;;;;;;8.23;2.25;;;15.90;99.90;;;;;;5095469;28;20040;-47
2023/08/05 01:56:42;;;;;;;5.38;2.30;;;15.80;99.90;;;;;;5096416;28;20040;-47
2023/08/05 01:59:07;;;;;;;5.38;1.75;;;15.80;99.90;;;;;;5096400;28;20040;-47
2023/08/05 02:01:40;;;;;;;4.75;1.90;;;15.80;99.90;;;;;;5096504;28;20048;-48
2023/08/05 02:04:06;;;;;;;4.72;1.70;;;15.80;99.90;;;;;;5096257;28;20079;-47
2023/08/05 02:06:31;;;;;;;8.05;2.08;;;15.80;99.90;;;;;;5096375;28;20076;-48
2023/08/05 02:08:57;;;;;;;7.40;1.90;;;15.80;99.90;;;;;;5095156;28;20051;-47
2023/08/05 02:11:23;;;;;;;5.77;1.40;;;15.80;99.90;;;;;;5096510;28;20048;-48
2023/08/05 02:13:48;;;;;;;3.80;1.45;;;15.80;99.90;;;;;;5096110;28;20047;-47
2023/08/05 02:16:14;;;;;;;5.88;1.75;;;15.80;99.90;;;;;;5094958;28;20083;-47
2023/08/05 02:18:40;;;;;;;4.63;1.60;;;15.70;99.90;;;;;;5094864;28;20089;-47
2023/08/05 02:21:05;;;;;;;3.23;1.30;;;15.70;99.90;;;;;;5094831;28;20282;-48
2023/08/05 02:23:31;;;;;;;4.68;1.67;;;15.70;99.90;;;;;;5096366;28;20790;-47
2023/08/05 02:25:56;;;;;;;3.58;1.50;;;15.60;99.90;;;;;;5095993;28;20051;-47
2023/08/05 02:28:22;;;;;;;4.33;1.40;;;15.60;99.90;;;;;;5095778;28;20624;-48
2023/08/05 02:30:48;;;;;;;5.80;1.65;;;15.60;99.90;;;;;;5094986;28;20052;-47
2023/08/05 02:33:13;;;;;;;7.13;1.93;;;15.60;99.90;;;;;;5095773;28;20090;-47
2023/08/05 02:35:39;;;;;;;4.60;1.70;;;15.60;99.90;;;;;;5094403;28;20285;-47
2023/08/05 02:38:05;;;;;;;3.95;1.45;;;15.60;99.90;;;;;;5095791;28;20278;-47
2023/08/05 02:40:33;;;;;;;4.65;1.55;;;15.60;99.90;;;;;;5096009;28;20044;-47
2023/08/05 02:42:59;;;;;;;4.30;1.90;;;15.60;99.90;;;;;;5095901;28;20067;-47
2023/08/05 02:45:25;;;;;;;4.72;1.70;;;15.50;99.90;;;;;;5094315;28;20044;-47
2023/08/05 02:47:50;;;;;;;7.30;1.52;;;15.50;99.90;;;;;;5093682;28;20456;-47
2023/08/05 02:50:16;;;;;;;3.42;1.50;;;15.50;99.90;;;;;;5095871;28;20048;-48
2023/08/05 02:52:42;;;;;;;3.47;1.30;;;15.40;99.90;;;;;;5095359;28;20083;-47
2023/08/05 02:55:07;;;;;;;4.28;1.65;;;15.40;99.90;;;;;;5094302;28;20137;-48
2023/08/05 02:57:33;;;;;;;4.20;1.65;;;15.40;99.90;;;;;;5095332;28;20048;-47
2023/08/05 02:59:59;;;;;;;4.03;1.50;;;15.40;99.90;;;;;;5094023;28;20467;-47
2023/08/05 03:02:24;;;;;;;4.47;1.33;;;15.40;99.90;;;;;;5095145;28;20281;-47
2023/08/05 03:04:50;;;;;;;3.80;1.67;;;15.40;99.90;;;;;;5095270;28;20036;-47
2023/08/05 03:07:16;;;;;;;5.07;1.80;;;15.30;99.90;;;;;;5095212;28;20131;-47
2023/08/05 03:09:41;;;;;;;4.30;1.37;;;15.40;99.90;;;;;;5095139;28;20365;-47
2023/08/05 03:12:08;;;;;;;3.73;1.47;;;15.30;99.90;;;;;;5094990;28;20288;-47
2023/08/05 03:14:34;;;;;;;3.08;1.42;;;15.30;99.90;;;;;;5095039;28;20044;-48
2023/08/05 03:17:00;;;;;;;4.20;1.42;;;15.30;99.90;;;;;;5093971;28;20055;-47
2023/08/05 03:19:25;;;;;;;4.05;1.33;;;15.30;99.90;;;;;;5094041;28;20044;-47
2023/08/05 03:21:51;;;;;;;5.32;1.30;;;15.30;99.90;;;;;;5093545;28;20098;-48
2023/08/05 03:24:17;;;;;;;4.88;1.35;;;15.30;99.90;;;;;;5095039;28;20076;-47
2023/08/05 03:26:42;;;;;;;3.83;1.67;;;15.20;99.90;;;;;;5095411;28;20055;-47
2023/08/05 03:29:08;;;;;;;4.07;1.77;;;15.20;99.90;;;;;;5093627;28;20044;-47
2023/08/05 03:31:34;;;;;;;5.28;1.73;;;15.20;99.90;;;;;;5094599;28;20540;-47
2023/08/05 03:33:59;;;;;;;3.88;1.50;;;15.20;99.90;;;;;;5094371;28;20040;-47
2023/08/05 03:36:25;;;;;;;5.87;1.40;;;15.20;99.90;;;;;;5094615;28;20062;-47
2023/08/05 03:38:51;;;;;;;3.37;1.70;;;15.20;99.90;;;;;;5093673;28;20390;-48
2023/08/05 03:41:17;;;;;;;;;;;15.20;99.90;;;;;;5095055;28;20043;-47
2023/08/05 03:43:42;;;;;;;4.28;1.30;;;15.20;99.90;;;;;;5094452;28;20432;-48
2023/08/05 03:46:08;;;;;;;3.27;1.43;;;15.10;99.90;;;;;;5094452;28;20126;-47
2023/08/05 03:48:34;;;;;;;4.82;1.65;;;15.10;99.90;;;;;;5093390;28;20331;-48
2023/08/05 03:51:00;;;;;;;4.80;1.57;;;15.10;99.90;;;;;;5094422;28;20051;-47
2023/08/05 03:53:26;;;;;;;4.53;1.75;;;15.10;99.90;;;;;;5094245;28;20307;-48
2023/08/05 03:55:51;;;;;;;4.20;1.58;;;15.10;99.90;;;;;;5094404;28;20121;-47
2023/08/05 03:58:19;;;;;;;3.63;1.45;;;15.10;99.90;;;;;;5094175;28;20384;-47
2023/08/05 04:00:45;;;;;;;4.68;1.60;;;15.10;99.90;;;;;;5093593;28;20051;-47
2023/08/05 04:03:11;;;;;;;3.33;1.50;;;15.20;99.90;;;;;;5092910;28;20051;-48
2023/08/05 04:05:37;;;;;;;4.40;1.98;;;15.20;99.90;;;;;;5094217;28;20463;-48
2023/08/05 04:08:02;;;;;;;2.47;1.05;;;15.20;99.90;;;;;;5093876;28;20052;-48
2023/08/05 04:10:30;;;;;;;4.05;1.30;;;15.20;99.90;;;;;;5094094;28;20048;-48
2023/08/05 04:12:57;;;;;;;3.95;1.15;;;15.20;99.90;;;;;;5094200;28;20055;-48
2023/08/05 04:15:25;;;;;;;4.60;1.30;;;15.20;99.90;;;;;;5094113;28;20079;-48
2023/08/05 04:17:53;;;;;;;3.97;1.30;;;15.30;99.90;;;;;;5094063;28;20127;-47
2023/08/05 04:20:20;;;;;;;4.22;1.15;;;15.30;99.90;;;;;;5093946;28;20048;-47
2023/08/05 04:22:49;;;;;;;2.70;1.25;;;15.30;99.90;;;;;;5093795;28;20487;-47
2023/08/05 04:25:14;;;;;;;4.78;1.17;;;15.30;99.90;;;;;;5093916;28;20056;-47
2023/08/05 04:27:40;;;;;;;5.90;1.30;;;15.30;99.90;;;;;;5093821;28;20089;-47
2023/08/05 04:30:07;;;;;;;6.07;1.37;;;15.30;99.90;;;;;;5092522;28;20048;-47
2023/08/05 04:32:33;;;;;;;2.95;1.10;;;15.30;99.90;;;;;;5094187;28;20278;-48
2023/08/05 04:34:59;;;;;;;4.07;1.23;;;15.30;99.90;;;;;;5093776;28;20040;-47
2023/08/05 04:37:25;;;;;;;4.40;1.60;;;15.30;99.90;;;;;;5094211;28;20044;-47
2023/08/05 04:39:50;;;;;;;3.30;1.33;;;15.30;99.90;;;;;;5093619;28;20366;-47
2023/08/05 04:42:17;;;;;;;3.87;1.10;;;15.30;99.90;;;;;;5093689;28;20285;-48
2023/08/05 04:44:43;;;;;;;3.67;1.60;;;15.30;99.90;;;;;;5093542;28;20274;-47
2023/08/05 04:47:10;;;;;;;4.20;1.63;;;15.30;99.90;;;;;;5093720;28;20048;-47
2023/08/05 04:49:38;;;;;;;2.92;1.30;;;15.30;99.90;;;;;;5093713;28;20040;-47
2023/08/05 04:52:06;;;;;;;3.25;1.20;;;15.20;99.90;;;;;;5093690;28;20047;-47
2023/08/05 04:54:44;;;;;;;3.72;1.48;;;15.20;99.90;;;;;;5093481;28;20052;-48
2023/08/05 04:57:11;;;;;;;5.32;1.50;;;15.20;99.90;;;;;;5092295;28;20407;-47
2023/08/05 04:59:36;;;;;;;4.13;1.48;;;15.10;99.90;;;;;;5093342;28;20478;-48
2023/08/05 05:02:02;;;;;;;3.33;1.27;;;15.10;99.90;;;;;;5093591;28;20050;-47
2023/08/05 05:04:28;;;;;;;4.80;1.33;;;15.10;99.90;;;;;;5093787;28;20391;-47
2023/08/05 05:06:54;;;;;;;3.38;1.40;;;15.10;99.90;;;;;;5093573;28;20043;-48
2023/08/05 05:09:20;;;;;;;2.67;1.25;;;15.20;99.90;;;;;;5093428;28;20040;-47
2023/08/05 05:11:45;;;;;;;3.15;1.27;;;15.20;99.90;;;;;;5095958;28;20043;-47
2023/08/05 05:14:11;;;;;;;2.35;1.00;;;15.20;99.90;;;;;;5097316;28;20048;-47
2023/08/05 05:16:36;;;;;;;3.33;1.30;;;15.30;99.90;;;;;;5097303;28;20127;-47
2023/08/05 05:19:02;;;;;;;2.60;1.20;;;15.40;99.90;;;;;;5097162;28;20336;-47
2023/08/05 05:21:29;;;;;;;5.57;1.57;;;15.50;99.90;;;;;;5097017;28;20298;-47
2023/08/05 05:23:55;;;;;;;4.90;1.60;;;15.50;99.90;;;;;;5097118;28;20330;-47
2023/08/05 05:26:21;;;;;;;3.13;1.30;;;15.50;99.90;;;;;;5097022;28;20090;-48
2023/08/05 05:28:46;;;;;;;4.90;1.30;;;15.60;99.90;;;;;;5097170;28;20394;-47
2023/08/05 05:31:12;;;;;;;5.13;1.63;;;15.60;99.90;;;;;;5097113;28;20285;-48
2023/08/05 05:33:38;;;;;;;4.47;1.30;;;15.70;99.90;;;;;;5097024;28;20048;-47
2023/08/05 05:36:03;;;;;;;2.75;1.20;;;15.70;99.90;;;;;;5096823;28;20054;-47
2023/08/05 05:38:29;;;;;;;3.30;1.33;;;15.80;99.90;;;;;;5096786;28;20044;-47
2023/08/05 05:40:55;;;;;;;2.90;1.07;;;15.80;99.90;;;;;;5096620;28;20047;-48
2023/08/05 05:43:20;;;;;;;3.13;1.20;;;15.90;99.90;;;;;;5096536;28;20335;-47
2023/08/05 05:45:49;;;;;;;2.65;0.95;;;15.90;99.90;;;;;;5096774;28;20048;-47
2023/08/05 05:48:14;;;;;;;3.67;1.20;;;16.00;99.90;;;;;;5096687;28;20055;-47
2023/08/05 05:50:43;;;;;;;2.30;0.98;;;16.10;99.90;;;;;;5096784;28;20387;-48
2023/08/05 05:53:13;;;;;;;2.47;1.08;;;16.30;99.90;;;;;;5096479;28;20050;-48
2023/08/05 05:55:41;;;;;;;2.10;1.10;;;16.50;99.90;;;;;;5096585;28;20052;-48
2023/08/05 05:58:07;;;;;;;2.58;1.02;;;16.60;99.90;;;;;;5095641;28;20052;-47
2023/08/05 06:00:33;;;;;;;4.03;1.63;;;16.70;99.90;;;;;;5096359;28;20048;-48
2023/08/05 06:03:00;;;;;;;2.50;1.05;;;16.90;99.90;;;;;;5096302;28;20074;-47
2023/08/05 06:05:26;;;;;;;3.50;1.35;;;17.10;99.90;;;;;;5096427;28;20092;-47
2023/08/05 06:07:51;;;;;;;4.07;1.27;;;17.30;99.90;;;;;;5095233;28;20084;-48
2023/08/05 06:10:17;;;;;;;3.92;1.02;;;17.20;99.90;;;;;;5096159;28;20047;-47
2023/08/05 06:12:43;;;;;;;3.45;1.30;;;17.10;99.90;;;;;;5096358;28;20047;-47
2023/08/05 06:15:09;;;;;;;2.72;1.48;;;17.30;99.90;;;;;;5094995;28;20507;-47
2023/08/05 06:17:35;;;;;;;3.40;1.00;;;17.60;99.90;;;;;;5095674;28;20051;-48
2023/08/05 06:20:00;;;;;;;4.90;1.13;;;17.80;99.90;;;;;;5095111;28;20066;-48
2023/08/05 06:22:26;;;;;;;4.55;1.30;;;17.90;99.90;;;;;;5094867;28;20097;-47
2023/08/05 06:24:52;;;;;;;3.95;0.98;;;18.10;99.90;;;;;;5096106;28;20056;-48
2023/08/05 06:27:17;;;;;;;2.60;1.10;;;18.00;99.90;;;;;;5096030;28;20055;-48
2023/08/05 06:29:43;;;;;;;3.95;1.15;;;18.00;99.90;;;;;;5095953;28;20091;-47
2023/08/05 06:32:09;;;;;;;2.60;0.98;;;18.20;99.90;;;;;;5096320;28;20119;-48
2023/08/05 06:34:35;;;;;;;3.42;0.90;;;18.70;99.90;;;;;;5094602;28;20462;-47
2023/08/05 06:37:00;;;;;;;1.65;0.70;;;19.30;99.90;;;;;;5095782;28;20498;-49
2023/08/05 06:39:26;;;;;;;3.58;0.80;;;19.60;99.90;;;;;;5095713;28;20407;-48
2023/08/05 06:41:52;;;;;;;1.85;0.90;;;19.60;99.90;;;;;;5094859;28;20395;-47
2023/08/05 06:44:17;;;;;;;4.43;1.27;;;19.40;99.90;;;;;;5095418;28;20127;-48
2023/08/05 06:46:43;;;;;;;3.25;0.90;;;19.30;99.90;;;;;;5095456;28;20218;-47
2023/08/05 06:49:10;;;;;;;2.72;1.00;;;19.10;99.90;;;;;;5095510;28;20136;-48
2023/08/05 06:51:37;;;;;;;2.72;1.13;;;19.00;99.90;;;;;;5095660;28;20048;-48
2023/08/05 06:54:03;;;;;;;3.60;0.80;;;18.90;99.90;;;;;;5095315;28;20051;-48
2023/08/05 06:56:28;;;;;;;2.90;0.90;;;18.80;99.90;;;;;;5095494;28;20043;-48
2023/08/05 06:58:54;;;;;;;3.17;0.98;;;18.80;99.90;;;;;;5095965;28;20127;-48
2023/08/05 07:01:20;;;;;;;2.63;0.82;;;18.70;99.90;;;;;;5095375;28;20047;-48
2023/08/05 07:03:46;;;;;;;1.40;0.73;;;18.80;99.90;;;;;;5095063;28;20051;-47
2023/08/05 07:06:12;;;;;;;2.67;0.80;;;18.90;99.90;;;;;;5095270;28;20059;-49
2023/08/05 07:08:37;;;;;;;1.98;0.77;;;19.30;99.90;;;;;;5095052;28;20502;-50
2023/08/05 07:11:03;;;;;;;1.90;0.80;;;19.40;99.90;;;;;;5095126;28;20079;-48
2023/08/05 07:13:29;;;;;;;2.05;0.88;;;19.30;99.90;;;;;;5095476;28;20399;-48
2023/08/05 07:16:02;;;;;;;1.73;0.77;;;19.20;99.90;;;;;;5094946;28;20505;-48
2023/08/05 07:18:28;;;;;;;2.45;0.90;;;19.20;99.90;;;;;;5095104;28;20514;-49
2023/08/05 07:20:54;;;;;;;2.40;0.80;;;19.20;99.90;;;;;;5094999;28;20052;-50
2023/08/05 07:23:20;;;;;;;1.15;0.50;;;19.20;99.90;;;;;;5094519;28;20068;-49
2023/08/05 07:25:46;;;;;;;2.05;0.77;;;19.10;99.90;;;;;;5094692;28;20483;-48
2023/08/05 07:28:12;;;;;;;2.97;0.80;;;19.00;99.90;;;;;;5093524;28;20053;-49
2023/08/05 07:30:38;;;;;;;2.38;0.80;;;18.90;99.90;;;;;;5093998;28;20059;-46
2023/08/05 07:33:09;;;;;;;2.30;0.75;;;18.70;99.90;;;;;;5094420;28;20127;-48
2023/08/05 07:35:38;;;;;;;1.52;0.70;;;18.60;99.90;;;;;;5094855;28;20050;-48
2023/08/05 07:38:09;;;;;;;5.65;0.85;;;18.50;99.90;;;;;;5095470;28;20498;-47
2023/08/05 07:40:38;;;;;;;3.05;1.00;;;18.40;99.90;;;;;;5094697;28;20051;-48
2023/08/05 07:43:05;;;;;;;2.47;0.90;;;18.30;99.90;;;;;;5094446;28;20056;-48
2023/08/05 07:45:33;;;;;;;1.95;0.70;;;18.30;99.90;;;;;;5094374;28;20048;-48
2023/08/05 07:48:00;;;;;;;2.22;0.80;;;18.20;99.90;;;;;;5093350;28;20557;-48
2023/08/05 07:50:25;;;;;;;;;;;18.10;99.90;;;;;;5094573;28;20094;-48
2023/08/05 07:52:51;;;;;;;2.58;0.80;;;18.10;99.90;;;;;;5094426;28;19924;-48
2023/08/05 07:55:18;;;;;;;2.25;1.00;;;18.10;99.90;;;;;;5094265;28;20055;-47
2023/08/05 07:57:46;;;;;;;2.17;0.70;;;18.10;99.90;;;;;;5094195;28;20070;-48
2023/08/05 08:00:13;;;;;;;3.20;0.90;;;18.00;99.90;;;;;;5094140;28;20048;-48
2023/08/05 08:02:43;;;;;;;2.28;0.75;;;18.00;99.90;;;;;;5093190;28;20052;-48
2023/08/05 08:05:13;;;;;;;3.38;0.93;;;18.00;99.90;;;;;;5094253;28;20135;-48
2023/08/05 08:07:46;;;;;;;2.38;0.95;;;18.00;99.90;;;;;;5094178;28;20047;-47
2023/08/05 08:10:12;;;;;;;2.85;1.10;;;18.00;99.90;;;;;;5094292;28;20052;-47
2023/08/05 08:12:38;;;;;;;1.88;0.88;;;18.00;99.90;;;;;;5093068;28;20502;-47
2023/08/05 08:15:04;;;;;;;1.92;0.80;;;18.00;99.90;;;;;;5094091;28;20044;-47
2023/08/05 08:17:30;;;;;;;;;;;18.10;99.90;;;;;;5094225;28;20052;-48
2023/08/05 08:19:55;;;;;;;4.20;0.80;;;18.00;99.90;;;;;;5093955;28;20069;-47
2023/08/05 08:22:21;;;;;;;3.85;1.02;;;18.10;99.90;;;;;;5092943;28;20044;-47
2023/08/05 08:24:47;;;;;;;3.60;0.80;;;18.10;99.90;;;;;;5094259;28;20060;-48
2023/08/05 08:27:13;;;;;;;2.10;0.60;;;18.10;99.90;;;;;;5093746;28;20514;-49
2023/08/05 08:29:38;;;;;;;2.70;0.90;;;18.10;99.90;;;;;;5093889;28;20048;-47
2023/08/05 08:32:04;;;;;;;2.55;0.90;;;18.10;99.90;;;;;;5093572;28;20055;-47
2023/08/05 08:34:30;;;;;;;1.65;0.70;;;18.10;99.90;;;;;;5093745;28;20040;-47
2023/08/05 08:36:55;;;;;;;2.05;0.80;;;18.10;99.90;;;;;;5093756;28;20096;-48
2023/08/05 08:39:21;;;;;;;3.00;1.70;;;18.10;99.90;;;;;;5093781;28;20056;-49
2023/08/05 08:41:49;;;;;;;1.63;0.80;;;18.10;99.90;;;;;;5093744;28;20043;-49
2023/08/05 08:44:16;;;;;;;2.83;0.90;;;18.20;99.90;;;;;;5093602;28;20044;-48
2023/08/05 08:46:44;;;;;;;1.77;0.80;;;18.20;99.90;;;;;;5096274;28;20123;-47
2023/08/05 08:49:13;;;;;;;2.15;0.80;;;18.20;99.90;;;;;;5096717;28;20388;-47
2023/08/05 08:51:40;;;;;;;2.70;0.77;;;18.20;99.90;;;;;;5097821;28;20048;-48
2023/08/05 08:54:07;;;;;;;2.38;0.88;;;18.20;99.90;;;;;;5097635;28;20040;-47
2023/08/05 08:56:32;;;;;;;2.28;0.95;;;18.20;99.90;;;;;;5097655;28;20510;-47
2023/08/05 08:58:58;;;;;;;3.60;1.00;;;18.20;99.90;;;;;;5097624;28;20079;-48
2023/08/05 09:01:26;;;;;;;2.10;0.90;;;18.20;99.90;;;;;;5097474;28;20087;-48
2023/08/05 09:03:53;;;;;;;1.98;0.80;;;18.20;99.90;;;;;;5097659;28;20044;-50
2023/08/05 09:06:25;;;;;;;2.35;0.90;;;18.20;99.90;;;;;;5096744;28;20472;-46
2023/08/05 09:08:51;;;;;;;2.70;0.80;;;18.30;99.90;;;;;;5097670;28;20136;-47
2023/08/05 09:11:17;;;;;;;1.73;0.80;;;18.30;99.90;;;;;;5097462;28;20123;-47
2023/08/05 09:13:43;;;;;;;1.23;0.60;;;18.40;99.90;;;;;;5097142;28;20040;-45
2023/08/05 09:16:15;;;;;;;2.70;1.13;;;18.50;99.90;;;;;;5097333;28;20044;-49
2023/08/05 09:18:53;;;;;;;2.42;0.93;;;18.50;99.90;;;;;;5097536;28;20043;-49
2023/08/05 09:21:26;;;;;;;2.45;0.90;;;18.50;99.90;;;;;;5097367;28;20052;-48
2023/08/05 09:23:58;;;;;;;3.22;0.70;;;18.60;99.90;;;;;;5096939;28;20067;-47
2023/08/05 09:26:32;;;;;;;3.58;0.80;;;18.60;99.90;;;;;;5097098;28;20048;-48
2023/08/05 09:28:59;;;;;;;1.92;0.90;;;18.60;99.90;;;;;;5097281;28;20043;-48
2023/08/05 09:31:25;;;;;;;2.90;0.85;;;18.50;99.90;;;;;;5097058;28;20054;-47
2023/08/05 09:33:51;;;;;;;2.30;0.80;;;18.60;99.90;;;;;;5097336;28;20032;-45
2023/08/05 09:36:22;;;;;;;;;;;18.60;99.90;;;;;;5097416;28;20051;-49
2023/08/05 09:39:09;;;;;;;3.97;0.75;;;18.60;99.90;;;;;;5096772;28;19920;-48
2023/08/05 09:41:35;;;;;;;1.15;0.70;;;18.70;99.90;;;;;;5096924;28;20048;-47
2023/08/05 09:44:01;;;;;;;1.75;0.68;;;18.60;99.90;;;;;;5096738;28;20396;-48
2023/08/05 09:46:37;;;;;;;2.25;0.90;;;18.70;99.90;;;;;;5096753;28;20040;-49
2023/08/05 09:49:04;;;;;;;1.77;0.60;;;18.80;99.90;;;;;;5096756;28;20079;-49
2023/08/05 09:51:30;;;;;;;2.35;0.80;;;18.80;99.90;;;;;;5096507;28;20131;-46
2023/08/05 09:53:58;;;;;;;2.38;1.20;;;18.90;99.90;;;;;;5096701;28;20135;-48
2023/08/05 09:56:25;;;;;;;1.88;0.75;;;18.90;99.90;;;;;;5096662;28;20113;-47
2023/08/05 09:58:52;;;;;;;2.85;0.60;;;19.00;99.90;;;;;;5096566;28;20050;-46
2023/08/05 10:01:19;;;;;;;1.98;0.70;;;19.00;99.90;;;;;;5096522;28;20036;-48
2023/08/05 10:03:47;;;;;;;1.85;0.65;;;19.00;99.90;;;;;;5096294;28;20426;-48
2023/08/05 10:06:13;;;;;;;2.00;0.90;;;19.00;99.90;;;;;;5096145;28;20188;-46
2023/08/05 10:08:40;;;;;;;2.47;0.73;;;19.00;99.90;;;;;;5095225;28;20083;-45
2023/08/05 10:11:07;;;;;;;2.22;0.70;;;19.10;99.90;;;;;;5095199;28;20052;-48
2023/08/05 10:13:38;;;;;;;1.67;0.70;;;19.10;99.90;;;;;;5096129;28;20040;-47
2023/08/05 10:16:07;;;;;;;1.67;0.60;;;19.20;99.90;;;;;;5096216;28;20419;-47
2023/08/05 10:18:34;;;;;;;1.90;0.80;;;19.20;99.90;;;;;;5095919;28;20044;-46
2023/08/05 10:21:05;;;;;;;1.83;0.90;;;19.30;99.90;;;;;;5096601;28;20124;-46
2023/08/05 10:23:34;;;;;;;1.73;0.77;;;19.40;99.90;;;;;;5096300;28;20109;-47
2023/08/05 10:26:02;;;;;;;3.38;0.82;;;19.40;99.90;;;;;;5096154;28;20127;-49
2023/08/05 10:28:39;;;;;;;1.83;0.70;;;19.50;99.90;;;;;;5095942;28;20048;-47
2023/08/05 10:31:06;;;;;;;2.53;0.77;;;19.60;99.90;;;;;;5095933;28;20059;-47
2023/08/05 10:33:52;;;;;;;3.30;0.90;;;19.60;99.90;;;;;;5095619;28;20387;-47
2023/08/05 10:36:17;;;;;;;1.77;0.70;;;19.60;99.90;;;;;;5095905;28;20066;-48
2023/08/05 10:38:43;;;;;;;3.65;0.88;;;19.60;99.90;;;;;;5095819;28;20542;-46
2023/08/05 10:41:10;;;;;;;2.00;0.75;;;19.50;99.90;;;;;;5095641;28;20086;-46
2023/08/05 10:43:41;;;;;;;2.03;0.85;;;19.60;99.90;;;;;;5095623;28;20498;-48
2023/08/05 10:46:06;;;;;;;1.58;0.60;;;19.60;99.90;;;;;;5094875;28;20542;-47
2023/08/05 10:48:38;;;;;;;2.42;0.90;;;19.60;99.90;;;;;;5095617;28;20127;-46
2023/08/05 10:51:25;;;;;;;2.22;0.77;;;19.60;99.90;;;;;;5095492;28;20052;-46
2023/08/05 10:53:50;;;;;;;2.30;0.63;;;19.70;99.90;;;;;;5095343;28;20080;-46
2023/08/05 10:56:16;;;;;;;2.42;0.70;;;19.80;99.90;;;;;;5095227;28;20083;-46
2023/08/05 10:58:50;;;;;;;2.28;0.80;;;19.90;99.90;;;;;;5095398;28;20535;-46
2023/08/05 11:01:17;;;;;;;2.05;0.80;;;20.00;99.90;;;;;;5094277;28;20534;-45
2023/08/05 11:03:52;;;;;;;1.35;0.70;;;20.10;99.90;;;;;;5095525;28;20087;-47
2023/08/05 11:06:25;;;;;;;1.20;0.60;;;20.10;99.90;;;;;;5094385;28;20044;-46
2023/08/05 11:08:51;;;;;;;1.50;0.80;;;20.30;99.90;;;;;;5094680;28;20087;-46
2023/08/05 11:11:17;;;;;;;;;;;20.30;99.90;;;;;;5095597;28;20052;-47
2023/08/05 11:13:47;;;;;;;1.63;0.85;;;20.40;99.90;;;;;;5095002;28;20263;-47
2023/08/05 11:16:17;;;;;;;2.97;0.80;;;20.40;99.90;;;;;;5095082;28;20048;-46
2023/08/05 11:18:45;;;;;;;2.00;0.70;;;20.60;99.90;;;;;;5095114;28;20039;-46
2023/08/05 11:21:13;;;;;;;2.50;0.90;;;20.70;99.90;;;;;;5094868;28;20048;-47
2023/08/05 11:23:43;;;;;;;2.03;0.80;;;20.70;99.90;;;;;;5094654;28;20056;-47
2023/08/05 11:26:09;;;;;;;1.88;0.90;;;20.80;99.90;;;;;;5094932;28;20083;-48
2023/08/05 11:28:41;;;;;;;2.65;0.80;;;20.90;99.90;;;;;;5094668;28;20048;-47
2023/08/05 11:31:06;;;;;;;1.70;0.80;;;20.90;99.90;;;;;;5093811;28;20483;-48
2023/08/05 11:33:32;;;;;;;1.15;0.65;;;20.90;99.90;;;;;;5094333;28;20047;-46
2023/08/05 11:35:58;;;;;;;1.63;0.73;;;20.90;99.90;;;;;;5094714;28;20057;-45
2023/08/05 11:38:24;;;;;;;2.40;0.82;;;21.00;99.90;;;;;;5094735;28;20044;-48
2023/08/05 11:40:56;;;;;;;;;;;21.00;99.90;;;;;;5094909;28;20096;-46
2023/08/05 11:43:23;;;;;;;1.90;0.80;;;21.00;99.90;;;;;;5094770;28;19920;-45
2023/08/05 11:45:51;;;;;;;1.55;0.85;;;21.00;99.90;;;;;;5094326;28;20483;-49
2023/08/05 11:48:21;;;;;;;1.65;0.75;;;21.00;99.90;;;;;;5093246;28;20437;-47
2023/08/05 11:50:47;;;;;;;1.73;0.77;;;21.00;99.90;;;;;;5094487;28;20483;-48
2023/08/05 11:53:14;;;;;;;4.85;1.10;;;21.00;99.90;;;;;;5094347;28;20055;-46
2023/08/05 11:55:42;;;;;;;3.70;1.00;;;21.10;99.90;;;;;;5094407;28;20176;-46
2023/08/05 11:58:08;;;;;;;3.67;1.08;;;21.10;99.90;;;;;;5093226;28;20055;-45
2023/08/05 12:00:34;;;;;;;2.20;0.80;;;21.10;99.90;;;;;;5093834;28;20591;-47
2023/08/05 12:03:03;;;;;;;3.03;1.00;;;21.10;99.90;;;;;;5094182;28;20051;-45
2023/08/05 12:05:29;;;;;;;2.28;0.88;;;21.00;99.90;;;;;;5094173;28;20047;-45
2023/08/05 12:07:54;;;;;;;6.53;1.20;;;20.90;99.90;;;;;;5094366;28;20044;-48
2023/08/05 12:10:21;;;;;;;2.58;0.90;;;20.80;99.90;;;;;;5094031;28;20093;-45
2023/08/05 12:12:50;;;;;;;;;;;20.80;99.90;;;;;;5094654;28;20048;-48
2023/08/05 12:15:27;;;;;;;1.88;1.13;;;20.70;99.90;;;;;;5093833;28;19924;-46
2023/08/05 12:17:58;;;;;;;3.42;0.77;;;20.70;99.90;;;;;;5094048;28;20051;-46
2023/08/05 12:20:25;;;;;;;2.03;0.90;;;20.60;99.90;;;;;;5093455;28;20079;-48
2023/08/05 12:22:52;;;;;;;2.47;0.70;;;20.50;99.90;;;;;;5093910;28;20058;-46
2023/08/05 12:25:18;;;;;;;1.95;0.90;;;20.40;99.90;;;;;;5092405;28;20490;-45
2023/08/05 12:27:45;;;;;;;8.07;1.90;;;20.30;99.90;;;;;;5093719;28;20112;-45
2023/08/05 12:30:11;;;;;;;2.67;1.20;;;20.20;99.90;;;;;;5093798;28;20045;-46
2023/08/05 12:32:37;;;;;;;3.58;1.20;;;20.10;99.90;;;;;;5093836;28;20044;-47
2023/08/05 12:35:04;;;;;;;4.38;1.50;;;20.10;99.90;;;;;;5093754;28;20055;-47
2023/08/05 12:37:30;;;;;;;5.30;1.30;;;20.00;99.90;;;;;;5094001;28;20088;-48
2023/08/05 12:39:55;;;;;;;3.97;1.40;;;20.00;99.90;;;;;;5093799;28;20516;-46
2023/08/05 12:42:21;;;;;;;2.95;0.95;;;20.00;99.90;;;;;;5093490;28;20113;-47
2023/08/05 12:44:47;;;;;;;2.47;1.00;;;19.90;99.90;;;;;;5092948;28;20048;-47
2023/08/05 12:47:13;;;;;;;3.50;1.55;;;19.90;99.90;;;;;;5093546;28;20101;-46